createdAt,value
2023-02-23T00:00:23.554Z,82.68
2023-02-23T00:03:14.573Z,82.26
2023-02-23T00:05:50.924Z,82.31
2023-02-23T00:08:23.710Z,82.40
2023-02-23T00:10:58.893Z,82.45
2023-02-23T00:13:37.658Z,82.34
2023-02-23T00:16:13.754Z,82.80
2023-02-23T00:18:51.121Z,82.23
2023-02-23T00:21:29.955Z,82.34
2023-02-23T00:24:05.354Z,82.77
2023-02-23T00:26:40.345Z,82.28
2023-02-23T00:29:17.540Z,82.13
2023-02-23T00:31:51.748Z,82.16
2023-02-23T00:34:24.266Z,82.74
2023-02-23T00:36:57.143Z,82.28
2023-02-23T00:39:37.333Z,82.13
2023-02-23T00:42:10.722Z,81.88
2023-02-23T00:44:43.476Z,82.29
2023-02-23T00:47:15.936Z,82.14
2023-02-23T00:49:48.365Z,82.21
2023-02-23T00:52:20.738Z,83.00
2023-02-23T00:54:53.988Z,82.40
2023-02-23T00:57:29.632Z,82.53
2023-02-23T01:00:02.049Z,82.29
2023-02-23T01:02:34.507Z,82.07
2023-02-23T01:05:07.426Z,82.24
2023-02-23T01:07:40.174Z,81.98
2023-02-23T01:10:20.336Z,81.94
2023-02-23T01:12:54.696Z,82.24
2023-02-23T01:15:29.259Z,82.19
2023-02-23T01:18:01.822Z,82.58
2023-02-23T01:20:36.369Z,82.45
2023-02-23T01:23:09.152Z,82.56
2023-02-23T01:25:42.910Z,82.23
2023-02-23T01:28:15.710Z,82.44
2023-02-23T01:30:49.316Z,82.20
2023-02-23T01:33:21.893Z,82.16
2023-02-23T01:36:01.862Z,82.22
2023-02-23T01:38:34.196Z,82.51
2023-02-23T01:41:10.638Z,82.68
2023-02-23T01:43:58.493Z,82.17
2023-02-23T01:46:32.379Z,82.15
2023-02-23T01:49:07.237Z,82.30
2023-02-23T01:51:48.697Z,82.25
2023-02-23T01:54:29.163Z,82.27
2023-02-23T01:57:05.096Z,82.58
2023-02-23T01:59:41.201Z,82.91
2023-02-23T02:02:14.340Z,82.87
2023-02-23T02:04:49.088Z,83.52
2023-02-23T02:07:24.104Z,82.83
2023-02-23T02:10:27.535Z,83.24
2023-02-23T02:13:01.101Z,82.97
2023-02-23T02:15:38.907Z,82.93
2023-02-23T02:18:23.736Z,83.22
2023-02-23T02:21:25.364Z,83.75
2023-02-23T02:24:30.421Z,83.21
2023-02-23T02:27:22.426Z,83.11
2023-02-23T02:30:28.241Z,83.32
2023-02-23T02:33:33.297Z,83.71
2023-02-23T02:36:59.465Z,83.66
2023-02-23T02:39:40.361Z,83.78
2023-02-23T02:42:25.686Z,83.62
2023-02-23T02:45:10.967Z,83.63
2023-02-23T02:47:46.570Z,83.47
2023-02-23T02:50:31.639Z,83.98
2023-02-23T02:53:10.268Z,83.61
2023-02-23T02:55:45.359Z,84.00
2023-02-23T02:58:20.590Z,84.10
2023-02-23T03:01:11.794Z,83.65
2023-02-23T03:04:08.057Z,83.78
2023-02-23T03:07:05.216Z,83.87
2023-02-23T03:10:06.499Z,83.56
2023-02-23T03:13:04.705Z,83.49
2023-02-23T03:16:10.005Z,83.64
2023-02-23T03:19:17.997Z,83.56
2023-02-23T03:22:14.349Z,83.60
2023-02-23T03:25:11.365Z,83.58
2023-02-23T03:28:11.516Z,83.31
2023-02-23T03:31:10.904Z,83.57
2023-02-23T03:34:09.594Z,83.55
2023-02-23T03:37:07.097Z,83.91
2023-02-23T03:40:06.473Z,84.22
2023-02-23T03:42:58.486Z,83.83
2023-02-23T03:45:51.530Z,83.96
2023-02-23T03:48:44.308Z,83.82
2023-02-23T03:51:37.152Z,83.70
2023-02-23T03:54:32.921Z,84.01
2023-02-23T03:57:29.289Z,83.83
2023-02-23T04:00:22.607Z,83.64
2023-02-23T04:03:16.876Z,83.56
2023-02-23T04:06:09.847Z,83.79
2023-02-23T04:09:00.359Z,83.60
2023-02-23T04:11:54.754Z,83.60
2023-02-23T04:14:34.247Z,83.58
2023-02-23T04:17:09.316Z,83.54
2023-02-23T04:19:49.951Z,84.00
2023-02-23T04:22:22.845Z,83.81
2023-02-23T04:24:55.426Z,84.00
2023-02-23T04:27:29.400Z,83.73
2023-02-23T04:30:03.801Z,83.76
2023-02-23T04:35:50.781Z,83.45
2023-02-23T04:38:23.257Z,83.55
2023-02-23T04:40:55.513Z,83.47
2023-02-23T04:43:27.666Z,83.56
2023-02-23T04:45:59.958Z,83.69
2023-02-23T04:48:32.383Z,83.73
2023-02-23T04:51:04.666Z,83.82
2023-02-23T04:53:37.014Z,83.66
2023-02-23T04:56:10.086Z,83.68
2023-02-23T04:58:42.300Z,84.14
2023-02-23T05:01:14.574Z,83.97
2023-02-23T05:03:46.845Z,84.03
2023-02-23T05:06:19.746Z,83.80
2023-02-23T05:08:52.034Z,83.82
2023-02-23T05:11:25.157Z,83.90
2023-02-23T05:13:57.587Z,84.05
2023-02-23T05:16:29.834Z,83.91
2023-02-23T05:19:02.208Z,84.42
2023-02-23T05:21:34.498Z,84.38
2023-02-23T05:24:07.418Z,84.17
2023-02-23T05:26:40.002Z,84.13
2023-02-23T05:29:12.413Z,84.25
2023-02-23T05:31:44.824Z,84.29
2023-02-23T05:34:19.039Z,84.40
2023-02-23T05:36:51.349Z,84.38
2023-02-23T05:39:23.560Z,84.44
2023-02-23T05:41:56.184Z,84.53
2023-02-23T05:44:28.737Z,84.60
2023-02-23T05:47:01.157Z,84.78
2023-02-23T05:49:33.588Z,84.95
2023-02-23T05:52:06.231Z,84.65
2023-02-23T05:54:38.565Z,84.94
2023-02-23T05:57:11.102Z,85.33
2023-02-23T05:59:43.731Z,85.28
2023-02-23T06:02:19.168Z,85.16
2023-02-23T06:04:51.416Z,85.52
2023-02-23T06:07:30.076Z,85.08
2023-02-23T06:10:02.379Z,84.94
2023-02-23T06:12:34.725Z,85.05
2023-02-23T06:15:08.600Z,85.28
2023-02-23T06:17:40.827Z,85.10
2023-02-23T06:20:16.244Z,85.27
2023-02-23T06:22:49.029Z,85.35
2023-02-23T06:25:21.927Z,85.33
2023-02-23T06:27:54.888Z,85.47
2023-02-23T06:30:27.273Z,85.37
2023-02-23T06:32:59.710Z,85.63
2023-02-23T06:35:33.024Z,85.53
2023-02-23T06:38:09.264Z,85.46
2023-02-23T06:40:44.844Z,85.41
2023-02-23T06:43:17.322Z,85.57
2023-02-23T06:45:50.669Z,85.87
2023-02-23T06:48:22.954Z,85.81
2023-02-23T06:51:00.315Z,86.10
2023-02-23T06:53:33.760Z,85.95
2023-02-23T06:56:06.658Z,85.79
2023-02-23T06:58:43.474Z,86.03
2023-02-23T07:01:19.019Z,85.77
2023-02-23T07:03:51.747Z,85.89
2023-02-23T07:06:24.970Z,86.00
2023-02-23T07:09:03.032Z,85.87
2023-02-23T07:11:36.658Z,85.52
2023-02-23T07:14:15.374Z,85.37
2023-02-23T07:16:56.163Z,84.99
2023-02-23T07:19:28.854Z,84.68
2023-02-23T07:22:01.486Z,84.77
2023-02-23T07:24:33.984Z,84.80
2023-02-23T07:27:06.451Z,84.48
2023-02-23T07:29:42.130Z,84.38
2023-02-23T07:32:14.635Z,84.05
2023-02-23T07:34:47.948Z,83.83
2023-02-23T07:37:20.428Z,84.26
2023-02-23T07:39:55.012Z,83.50
2023-02-23T07:42:27.440Z,83.73
2023-02-23T07:45:02.615Z,82.19
2023-02-23T07:47:35.488Z,81.87
2023-02-23T07:50:12.779Z,81.96
2023-02-23T07:52:45.843Z,82.85
2023-02-23T07:55:22.477Z,82.74
2023-02-23T07:57:55.239Z,82.95
2023-02-23T08:00:28.153Z,82.76
2023-02-23T08:03:01.544Z,80.29
2023-02-23T08:05:34.028Z,79.34
2023-02-23T08:08:06.790Z,78.47
2023-02-23T08:10:39.607Z,76.53
2023-02-23T08:13:12.364Z,77.49
2023-02-23T08:15:44.949Z,77.94
2023-02-23T08:18:17.820Z,77.46
2023-02-23T08:20:50.072Z,76.88
2023-02-23T08:23:22.423Z,76.85
2023-02-23T08:25:56.014Z,76.44
2023-02-23T08:28:28.859Z,76.60
2023-02-23T08:31:01.722Z,76.24
2023-02-23T08:33:34.971Z,76.04
2023-02-23T08:36:08.190Z,74.73
2023-02-23T08:38:40.931Z,75.14
2023-02-23T08:41:13.299Z,74.94
2023-02-23T08:43:45.655Z,73.55
2023-02-23T08:46:20.507Z,73.80
2023-02-23T08:48:53.143Z,74.44
2023-02-23T08:51:25.879Z,75.80
2023-02-23T08:53:58.333Z,74.82
2023-02-23T08:56:31.904Z,72.28
2023-02-23T08:59:04.194Z,73.99
2023-02-23T09:01:37.287Z,73.18
2023-02-23T09:04:10.072Z,72.47
2023-02-23T09:06:42.645Z,71.98
2023-02-23T09:09:15.000Z,72.76
2023-02-23T09:11:47.515Z,73.36
2023-02-23T09:14:22.958Z,69.57
2023-02-23T09:16:55.352Z,69.93
2023-02-23T09:19:28.478Z,71.71
2023-02-23T09:22:03.238Z,70.86
2023-02-23T09:24:35.510Z,67.62
2023-02-23T09:27:13.053Z,65.63
2023-02-23T09:29:45.334Z,65.43
2023-02-23T09:32:17.827Z,66.82
2023-02-23T09:34:52.650Z,64.97
2023-02-23T09:37:25.650Z,64.00
2023-02-23T09:39:58.228Z,62.72
2023-02-23T09:42:41.285Z,63.54
2023-02-23T09:45:37.418Z,64.19
2023-02-23T09:48:17.666Z,62.16
2023-02-23T09:50:57.262Z,63.25
2023-02-23T09:53:40.622Z,60.99
2023-02-23T09:56:19.568Z,60.84
2023-02-23T09:58:57.263Z,62.79
2023-02-23T10:02:00.736Z,59.76
2023-02-23T10:04:45.533Z,61.19
2023-02-23T10:07:27.607Z,58.81
2023-02-23T10:10:23.741Z,58.55
2023-02-23T10:13:05.746Z,58.53
2023-02-23T10:15:46.676Z,59.31
2023-02-23T10:18:46.234Z,55.31
2023-02-23T10:21:22.708Z,56.14
2023-02-23T10:24:03.161Z,56.29
2023-02-23T10:26:44.460Z,56.18
2023-02-23T10:29:28.422Z,55.61
2023-02-23T10:32:07.536Z,53.93
2023-02-23T10:34:41.059Z,55.18
2023-02-23T10:37:21.960Z,51.94
2023-02-23T10:39:55.490Z,51.80
2023-02-23T10:42:31.959Z,50.81
2023-02-23T10:45:04.478Z,50.85
2023-02-23T10:47:38.933Z,48.23
2023-02-23T10:50:15.580Z,50.88
2023-02-23T10:52:49.827Z,49.17
2023-02-23T10:55:28.748Z,50.21
2023-02-23T10:58:11.256Z,51.63
2023-02-23T11:00:53.595Z,47.90
2023-02-23T11:03:35.051Z,48.69
2023-02-23T11:06:08.903Z,50.73
2023-02-23T11:08:42.009Z,50.01
2023-02-23T11:11:28.918Z,49.45
2023-02-23T11:14:16.951Z,48.77
2023-02-23T11:16:49.551Z,48.52
2023-02-23T11:19:26.408Z,47.88
2023-02-23T11:21:58.758Z,47.21
2023-02-23T11:24:42.321Z,48.55
2023-02-23T11:27:25.327Z,49.44
2023-02-23T11:30:06.365Z,49.32
2023-02-23T11:32:45.025Z,49.11
2023-02-23T11:35:33.088Z,50.14
2023-02-23T11:38:23.690Z,50.67
2023-02-23T11:41:04.285Z,50.95
2023-02-23T11:43:37.264Z,51.39
2023-02-23T11:49:27.956Z,51.47
2023-02-23T11:52:00.633Z,51.45
2023-02-23T11:54:35.099Z,52.01
2023-02-23T11:57:07.814Z,52.27
2023-02-23T11:59:41.962Z,52.40
2023-02-23T12:02:25.119Z,52.72
2023-02-23T12:05:07.933Z,52.72
2023-02-23T12:07:47.364Z,52.84
2023-02-23T12:10:24.660Z,53.21
2023-02-23T12:13:07.476Z,52.86
2023-02-23T12:15:48.892Z,53.41
2023-02-23T12:18:39.787Z,52.79
2023-02-23T12:21:24.931Z,52.90
2023-02-23T12:24:05.553Z,52.86
2023-02-23T12:26:46.179Z,53.38
2023-02-23T12:29:21.545Z,53.11
2023-02-23T12:31:59.119Z,52.87
2023-02-23T12:34:43.985Z,53.06
2023-02-23T12:37:29.463Z,53.07
2023-02-23T12:40:12.402Z,53.48
2023-02-23T12:42:50.714Z,54.15
2023-02-23T12:45:30.269Z,54.21
2023-02-23T12:48:13.722Z,54.42
2023-02-23T12:50:53.010Z,54.39
2023-02-23T12:53:32.603Z,54.60
2023-02-23T12:56:17.741Z,54.87
2023-02-23T12:58:58.715Z,54.95
2023-02-23T13:01:35.997Z,55.23
2023-02-23T13:04:45.171Z,55.43
2023-02-23T13:07:24.091Z,55.73
2023-02-23T13:10:06.882Z,55.70
2023-02-23T13:12:49.494Z,55.85
2023-02-23T13:15:30.935Z,55.61
2023-02-23T13:18:10.602Z,55.89
2023-02-23T13:20:49.144Z,56.42
2023-02-23T13:23:28.836Z,56.54
2023-02-23T13:26:13.212Z,56.43
2023-02-23T13:28:56.667Z,56.62
2023-02-23T13:31:33.596Z,57.11
2023-02-23T13:34:10.625Z,57.21
2023-02-23T13:36:44.149Z,57.52
2023-02-23T13:39:49.735Z,57.72
2023-02-23T13:42:33.221Z,58.06
2023-02-23T13:45:28.855Z,58.08
2023-02-23T13:48:08.073Z,58.07
2023-02-23T13:50:50.646Z,58.81
2023-02-23T13:53:41.094Z,58.77
2023-02-23T13:56:19.361Z,58.90
2023-02-23T13:58:57.720Z,58.88
2023-02-23T14:01:34.603Z,59.01
2023-02-23T14:04:13.054Z,59.61
2023-02-23T14:06:56.875Z,59.58
2023-02-23T14:09:35.455Z,59.45
2023-02-23T14:12:19.512Z,60.08
2023-02-23T14:14:52.109Z,59.88
2023-02-23T14:17:50.520Z,60.17
2023-02-23T14:20:38.257Z,60.22
2023-02-23T14:23:38.100Z,60.39
2023-02-23T14:26:39.527Z,60.74
2023-02-23T14:29:29.208Z,61.02
2023-02-23T14:32:30.458Z,61.37
2023-02-23T14:35:03.908Z,61.51
2023-02-23T14:37:38.256Z,61.46
2023-02-23T14:40:19.353Z,61.63
2023-02-23T14:42:53.540Z,61.85
2023-02-23T14:45:29.013Z,61.87
2023-02-23T14:48:08.055Z,62.00
2023-02-23T14:50:41.440Z,62.38
2023-02-23T14:53:20.070Z,62.16
2023-02-23T14:55:52.338Z,62.57
2023-02-23T14:58:28.150Z,62.56
2023-02-23T15:01:00.792Z,62.70
2023-02-23T15:03:33.008Z,62.93
2023-02-23T15:06:06.577Z,63.11
2023-02-23T15:08:46.028Z,63.44
2023-02-23T15:11:21.577Z,63.27
2023-02-23T15:13:55.807Z,63.80
2023-02-23T15:16:34.494Z,63.69
2023-02-23T15:19:08.229Z,63.88
2023-02-23T15:21:41.116Z,63.96
2023-02-23T15:24:16.711Z,64.08
2023-02-23T15:26:49.802Z,64.58
2023-02-23T15:29:24.861Z,64.59
2023-02-23T15:31:58.493Z,64.56
2023-02-23T15:34:35.094Z,64.74
2023-02-23T15:37:14.207Z,64.79
2023-02-23T15:39:54.083Z,65.05
2023-02-23T15:42:33.609Z,65.10
2023-02-23T15:45:20.163Z,65.21
2023-02-23T15:47:56.432Z,65.07
2023-02-23T15:50:37.255Z,65.28
2023-02-23T15:53:19.718Z,65.57
2023-02-23T15:55:55.714Z,65.72
2023-02-23T15:58:30.815Z,65.56
2023-02-23T16:01:13.615Z,65.76
2023-02-23T16:03:57.901Z,65.96
2023-02-23T16:06:35.885Z,66.28
2023-02-23T16:09:25.273Z,66.21
2023-02-23T16:12:04.568Z,66.45
2023-02-23T16:14:44.904Z,66.56
2023-02-23T16:17:26.928Z,66.77
2023-02-23T16:20:14.801Z,66.60
2023-02-23T16:22:54.995Z,66.79
2023-02-23T16:25:31.448Z,67.07
2023-02-23T16:28:06.705Z,67.46
2023-02-23T16:30:44.281Z,67.27
2023-02-23T16:33:22.970Z,67.19
2023-02-23T16:36:07.337Z,67.76
2023-02-23T16:38:41.117Z,67.79
2023-02-23T16:41:20.509Z,68.07
2023-02-23T16:43:54.045Z,67.94
2023-02-23T16:46:29.859Z,67.98
2023-02-23T16:49:10.433Z,68.45
2023-02-23T16:51:41.664Z,68.28
2023-02-23T16:54:14.202Z,68.57
2023-02-23T16:56:47.805Z,68.49
2023-02-23T16:59:21.566Z,68.65
2023-02-23T17:01:54.293Z,69.00
2023-02-23T17:04:29.792Z,68.88
2023-02-23T17:07:02.137Z,69.23
2023-02-23T17:09:34.295Z,69.55
2023-02-23T17:12:07.214Z,69.64
2023-02-23T17:14:41.311Z,69.70
2023-02-23T17:17:23.103Z,70.18
2023-02-23T17:19:55.356Z,70.13
2023-02-23T17:22:36.613Z,70.18
2023-02-23T17:25:14.339Z,70.49
2023-02-23T17:27:46.507Z,70.52
2023-02-23T17:30:20.096Z,70.81
2023-02-23T17:32:53.023Z,70.97
2023-02-23T17:35:26.893Z,71.19
2023-02-23T17:37:59.254Z,71.46
2023-02-23T17:40:34.708Z,71.51
2023-02-23T17:43:08.699Z,71.48
2023-02-23T17:45:43.261Z,71.69
2023-02-23T17:48:15.465Z,71.85
2023-02-23T17:50:47.747Z,71.81
2023-02-23T17:53:20.128Z,71.89
2023-02-23T17:55:52.469Z,71.74
2023-02-23T17:58:25.394Z,72.08
2023-02-23T18:00:59.453Z,72.34
2023-02-23T18:03:33.680Z,72.49
2023-02-23T18:06:08.458Z,72.46
2023-02-23T18:08:42.723Z,72.45
2023-02-23T18:11:17.657Z,73.09
2023-02-23T18:13:51.454Z,72.94
2023-02-23T18:16:24.586Z,73.02
2023-02-23T18:18:58.095Z,73.39
2023-02-23T18:21:30.697Z,73.34
2023-02-23T18:24:03.282Z,73.34
2023-02-23T18:26:35.765Z,73.38
2023-02-23T18:29:10.798Z,73.50
2023-02-23T18:31:43.242Z,74.09
2023-02-23T18:34:16.604Z,74.33
2023-02-23T18:36:48.807Z,74.15
2023-02-23T18:39:21.011Z,74.05
2023-02-23T18:41:53.424Z,74.34
2023-02-23T18:44:26.947Z,74.40
2023-02-23T18:47:01.211Z,74.46
2023-02-23T18:49:33.597Z,74.79
2023-02-23T18:52:12.094Z,74.42
2023-02-23T18:54:44.396Z,74.48
2023-02-23T18:57:16.797Z,74.87
2023-02-23T18:59:49.456Z,74.50
2023-02-23T19:02:23.437Z,74.57
2023-02-23T19:05:02.923Z,74.84
2023-02-23T19:07:35.728Z,74.74
2023-02-23T19:10:12.358Z,74.61
2023-02-23T19:12:44.809Z,75.14
2023-02-23T19:15:17.659Z,75.53
2023-02-23T19:17:50.345Z,75.41
2023-02-23T19:20:22.929Z,75.57
2023-02-23T19:22:55.671Z,75.24
2023-02-23T19:25:27.964Z,75.63
2023-02-23T19:28:01.165Z,75.88
2023-02-23T19:30:38.075Z,75.63
2023-02-23T19:33:10.377Z,75.86
2023-02-23T19:35:44.568Z,75.59
2023-02-23T19:38:17.594Z,75.69
2023-02-23T19:40:51.011Z,76.22
2023-02-23T19:43:23.297Z,76.43
2023-02-23T19:45:55.649Z,76.40
2023-02-23T19:48:29.066Z,76.81
2023-02-23T19:51:01.771Z,76.88
2023-02-23T19:53:35.940Z,77.03
2023-02-23T19:56:10.200Z,77.20
2023-02-23T19:58:46.777Z,77.34
2023-02-23T20:01:21.152Z,77.16
2023-02-23T20:03:55.616Z,77.32
2023-02-23T20:06:30.742Z,77.73
2023-02-23T20:09:04.609Z,78.34
2023-02-23T20:11:37.065Z,78.01
2023-02-23T20:14:09.414Z,78.03
2023-02-23T20:16:41.680Z,77.86
2023-02-23T20:19:14.030Z,77.99
2023-02-23T20:21:46.338Z,78.63
2023-02-23T20:24:19.660Z,79.02
2023-02-23T20:26:58.198Z,79.10
2023-02-23T20:29:30.625Z,79.15
2023-02-23T20:32:04.753Z,79.57
2023-02-23T20:34:39.343Z,79.28
2023-02-23T20:37:11.646Z,79.27
2023-02-23T20:39:43.867Z,79.30
2023-02-23T20:42:16.695Z,79.61
2023-02-23T20:44:50.262Z,79.99
2023-02-23T20:47:23.087Z,80.52
